Capitol Logistics 773


EBLG
Liège Airport
Liege, BE
OKBK
Kuwait International Airport
Kuwait City, KW

Route Details

Aircraft Information
Primary: Boeing 767-300BDSF
Backup: Not Available
Route Data
Distance: 2299nm
Sched. Duration: 5h 13m
Avg. Duration: 5h 37m (+23m)
Times Flown: 3
Recm'd Route: TUTOV FFM L984 OSBIT UZ205 LULAR Z205 ABUDO Z37 GIMBO INVED M747 CND L5 ADINA L851 KUGOS UW704 SIN CRM UM688 AD AD2D
Planned Altitude: 33,000ft
Origin Wx: EBLG 060620Z 24015KT 9999 -SHRA SCT009 09/08 Q1000 TEMPO BKN009
Dest. Wx: OKBK 060600Z 35015KT CAVOK 39/08 Q1005 NOSIG
Notes:

Financial History
Total Freight: 269,786lbs
Average Load: 89,929lbs/flt
Fuel Used: 178,553lbs
Avg. Fuel Used: 59,518lbs/flt
Fuel Expense: $198,194
Avg. Fuel Expense: $66,065
Avg. Fuel Cost: $1.11/lbs
Total Gross Income: $654,016
Pilot Pay: $717
Total Expenses: $70,790
Total Revenue: $380,941
Average Revenue: $218,005.17